Time;durP1;ratioP1;P1;durP2;ratioP2;P2;SDS_P1;SDS_P2;PMS_P1;PMS_P2;Temp;Humidity;BMP_temperature;BMP_pressure;BME280_temperature;BME280_humidity;BME280_pressure;Samples;Min_cycle;Max_cycle;Signal;HPM_P1;HPM_P2
2021/08/15 00:01:38;;;;;;;3.95;1.00;;;16.00;99.90;;;;;;5120003;28;20023;-77
2021/08/15 00:04:04;;;;;;;3.15;0.90;;;16.00;99.90;;;;;;5119133;28;20039;-77
2021/08/15 00:06:29;;;;;;;3.17;0.60;;;16.00;99.90;;;;;;5100933;28;20384;-77
2021/08/15 00:08:55;;;;;;;3.47;0.65;;;15.90;99.90;;;;;;5119430;28;20023;-77
2021/08/15 00:11:20;;;;;;;6.22;0.50;;;15.90;99.90;;;;;;5119891;28;20419;-77
2021/08/15 00:13:46;;;;;;;1.95;0.47;;;15.90;99.90;;;;;;5119372;28;20023;-77
2021/08/15 00:16:11;;;;;;;2.75;0.32;;;15.90;99.90;;;;;;5120377;28;20065;-77
2021/08/15 00:18:37;;;;;;;2.20;0.50;;;15.90;99.90;;;;;;5119617;28;20027;-77
2021/08/15 00:21:05;;;;;;;2.20;0.40;;;16.60;99.90;;;;;;5119569;28;20018;-77
2021/08/15 00:23:31;;;;;;;1.65;0.63;;;17.00;99.90;;;;;;5119340;28;20015;-77
2021/08/15 00:25:57;;;;;;;6.22;0.90;;;16.00;99.90;;;;;;5101223;28;20358;-77
2021/08/15 00:28:23;;;;;;;3.45;0.28;;;16.00;99.90;;;;;;5119311;28;20076;-77
2021/08/15 00:30:48;;;;;;;1.85;0.17;;;16.10;99.90;;;;;;5100684;28;20051;-77
2021/08/15 00:33:14;;;;;;;1.08;0.20;;;16.10;99.90;;;;;;5100454;28;20045;-77
2021/08/15 00:35:40;;;;;;;2.00;0.25;;;16.10;99.90;;;;;;5118953;28;20024;-77
2021/08/15 00:38:05;;;;;;;3.28;0.60;;;16.10;99.90;;;;;;5118777;28;20481;-77
2021/08/15 00:40:31;;;;;;;4.07;0.40;;;16.10;99.90;;;;;;5118780;28;20073;-77
2021/08/15 00:42:57;;;;;;;2.88;0.28;;;16.10;99.90;;;;;;5119363;28;20423;-77
2021/08/15 00:45:22;;;;;;;2.50;0.30;;;16.00;99.90;;;;;;5100744;28;20030;-77
2021/08/15 00:47:48;;;;;;;2.92;0.50;;;16.10;99.90;;;;;;5100964;28;20106;-77
2021/08/15 00:50:13;;;;;;;2.15;0.68;;;16.00;99.90;;;;;;5119968;28;20034;-78
2021/08/15 00:52:39;;;;;;;2.15;0.38;;;16.00;99.90;;;;;;5118938;28;20024;-77
2021/08/15 00:55:09;;;;;;;2.78;0.70;;;16.00;99.90;;;;;;5100424;28;20031;-77
2021/08/15 00:57:36;;;;;;;2.72;0.40;;;15.90;99.90;;;;;;5118994;28;20027;-77
2021/08/15 01:00:07;;;;;;;3.40;0.77;;;15.90;99.90;;;;;;5118950;28;20020;-77
2021/08/15 01:02:34;;;;;;;1.75;0.30;;;15.90;99.90;;;;;;5099972;28;20194;-77
2021/08/15 01:05:01;;;;;;;2.67;0.20;;;15.90;99.90;;;;;;5100043;28;20019;-77
2021/08/15 01:07:26;;;;;;;2.67;0.30;;;15.80;99.90;;;;;;5118214;28;20519;-77
2021/08/15 01:09:52;;;;;;;1.65;0.50;;;15.80;99.90;;;;;;5118321;28;20027;-77
2021/08/15 01:12:18;;;;;;;1.75;0.73;;;15.80;99.90;;;;;;5117923;28;20596;-77
2021/08/15 01:14:45;;;;;;;3.30;0.20;;;15.80;99.90;;;;;;5118782;28;20019;-77
2021/08/15 01:17:11;;;;;;;3.30;0.50;;;15.80;99.90;;;;;;5118476;28;20027;-77
2021/08/15 01:19:37;;;;;;;4.05;0.52;;;15.80;99.90;;;;;;5118384;28;20407;-77
2021/08/15 01:22:03;;;;;;;1.65;0.50;;;15.80;99.90;;;;;;5099314;28;20072;-77
2021/08/15 01:24:29;;;;;;;1.00;0.20;;;15.80;99.90;;;;;;5118302;28;20020;-77
2021/08/15 01:26:56;;;;;;;1.00;0.20;;;15.80;99.90;;;;;;5117778;28;20354;-77
2021/08/15 01:29:26;;;;;;;3.05;0.30;;;15.80;99.90;;;;;;5116935;28;20020;-77
2021/08/15 01:31:52;;;;;;;1.90;0.60;;;15.80;99.90;;;;;;5099536;28;20028;-77
2021/08/15 01:34:17;;;;;;;1.35;0.45;;;15.80;99.90;;;;;;5117663;28;20068;-77
2021/08/15 01:36:43;;;;;;;3.28;1.52;;;15.80;99.90;;;;;;5117923;28;20024;-77
2021/08/15 01:39:09;;;;;;;3.13;0.95;;;15.80;99.90;;;;;;5099138;28;20028;-77
2021/08/15 01:41:36;;;;;;;3.33;0.35;;;15.80;99.90;;;;;;5117771;28;20095;-77
2021/08/15 01:44:03;;;;;;;1.63;0.30;;;15.80;99.90;;;;;;5099587;28;20028;-77
2021/08/15 01:46:32;;;;;;;4.05;0.25;;;15.80;99.90;;;;;;5117880;28;20051;-77
2021/08/15 01:48:59;;;;;;;4.40;0.88;;;15.80;99.90;;;;;;5099390;28;20023;-77
2021/08/15 01:51:26;;;;;;;2.22;0.80;;;15.80;99.90;;;;;;5118315;28;20032;-77
2021/08/15 01:53:54;;;;;;;2.13;0.52;;;15.80;99.90;;;;;;5099296;28;20507;-77
2021/08/15 01:56:20;;;;;;;;;;;15.80;99.90;;;;;;5118353;28;20070;-77
2021/08/15 01:58:46;;;;;;;2.95;0.88;;;15.80;99.90;;;;;;5117857;28;19907;-77
2021/08/15 02:01:19;;;;;;;2.83;0.40;;;15.80;99.90;;;;;;5117140;28;20499;-77
2021/08/15 02:03:46;;;;;;;3.42;0.43;;;15.90;99.90;;;;;;5117596;28;20019;-77
2021/08/15 02:06:11;;;;;;;1.90;0.30;;;15.80;99.90;;;;;;5099489;28;20019;-77
2021/08/15 02:08:37;;;;;;;2.08;0.47;;;15.80;99.90;;;;;;5114612;28;20472;-77
2021/08/15 02:11:03;;;;;;;3.17;0.63;;;15.80;99.90;;;;;;5115303;28;20035;-77
2021/08/15 02:13:29;;;;;;;1.38;0.30;;;15.80;99.90;;;;;;5114720;28;20053;-78
2021/08/15 02:15:54;;;;;;;1.95;0.90;;;15.80;99.90;;;;;;5114408;28;20480;-78
2021/08/15 02:18:20;;;;;;;2.30;0.65;;;15.80;99.90;;;;;;5096213;28;20034;-77
2021/08/15 02:20:45;;;;;;;2.22;0.93;;;15.70;99.90;;;;;;5096513;28;20030;-77
2021/08/15 02:23:12;;;;;;;1.65;0.50;;;15.70;99.90;;;;;;5114489;28;20407;-77
2021/08/15 02:25:37;;;;;;;4.10;0.50;;;15.70;99.90;;;;;;5096282;28;20107;-77
2021/08/15 02:28:04;;;;;;;3.20;0.82;;;15.60;99.90;;;;;;5114191;28;20059;-77
2021/08/15 02:30:31;;;;;;;2.42;0.70;;;15.60;99.90;;;;;;5096393;28;20465;-77
2021/08/15 02:32:57;;;;;;;4.57;0.70;;;15.60;99.90;;;;;;5095619;28;20020;-77
2021/08/15 02:35:22;;;;;;;6.30;0.77;;;15.60;99.90;;;;;;5095712;28;20076;-77
2021/08/15 02:37:51;;;;;;;1.60;0.40;;;15.50;99.90;;;;;;5113806;28;20055;-77
2021/08/15 02:40:19;;;;;;;4.53;0.85;;;15.50;99.90;;;;;;5114671;28;20392;-75
2021/08/15 02:42:46;;;;;;;3.65;0.45;;;15.50;99.90;;;;;;5118418;28;20043;-75
2021/08/15 02:45:14;;;;;;;4.13;0.50;;;15.50;99.90;;;;;;5098940;28;20053;-75
2021/08/15 02:47:39;;;;;;;1.97;0.37;;;15.50;99.90;;;;;;5099024;28;20032;-75
2021/08/15 02:50:06;;;;;;;5.03;0.65;;;15.50;99.90;;;;;;5117232;28;20789;-75
2021/08/15 02:52:32;;;;;;;3.05;0.57;;;15.50;99.90;;;;;;5117222;28;20070;-77
2021/08/15 02:54:58;;;;;;;2.53;0.73;;;15.50;99.90;;;;;;5117120;28;20028;-76
2021/08/15 02:57:23;;;;;;;3.45;0.75;;;15.40;99.90;;;;;;5117016;28;20020;-76
2021/08/15 02:59:49;;;;;;;3.90;0.80;;;15.40;99.90;;;;;;5117301;28;20043;-76
2021/08/15 03:02:17;;;;;;;5.22;1.02;;;15.30;99.90;;;;;;5098568;28;20115;-76
2021/08/15 03:04:43;;;;;;;4.70;1.13;;;15.30;99.90;;;;;;5117075;28;20122;-76
2021/08/15 03:07:10;;;;;;;3.40;0.63;;;15.30;99.90;;;;;;5098596;28;20538;-76
2021/08/15 03:09:36;;;;;;;3.05;0.93;;;15.10;99.90;;;;;;5116809;28;20043;-76
2021/08/15 03:12:01;;;;;;;4.32;0.98;;;15.30;99.90;;;;;;5116994;28;20020;-76
2021/08/15 03:14:27;;;;;;;4.45;1.13;;;15.30;99.90;;;;;;5116730;28;20027;-76
2021/08/15 03:16:52;;;;;;;2.70;1.00;;;15.10;99.90;;;;;;5117252;28;20023;-76
2021/08/15 03:19:18;;;;;;;3.22;1.00;;;15.20;99.90;;;;;;5098696;28;20028;-76
2021/08/15 03:21:44;;;;;;;3.58;0.90;;;15.20;99.90;;;;;;5116595;28;20204;-76
2021/08/15 03:24:10;;;;;;;2.55;1.33;;;15.20;99.90;;;;;;5098309;28;20493;-76
2021/08/15 03:26:41;;;;;;;4.70;1.48;;;15.20;99.90;;;;;;5098458;28;20011;-77
2021/08/15 03:29:07;;;;;;;3.58;0.85;;;15.20;99.90;;;;;;5117180;28;20020;-75
2021/08/15 03:31:33;;;;;;;4.22;1.23;;;15.20;99.90;;;;;;5098071;28;20019;-75
2021/08/15 03:33:58;;;;;;;3.95;1.23;;;15.20;99.90;;;;;;5116635;28;20016;-77
2021/08/15 03:36:24;;;;;;;4.90;1.70;;;15.20;99.90;;;;;;5116554;28;20572;-77
2021/08/15 03:38:49;;;;;;;7.75;1.40;;;15.20;99.90;;;;;;5116368;28;20492;-77
2021/08/15 03:41:15;;;;;;;3.15;1.23;;;15.20;99.90;;;;;;5116470;28;20028;-78
2021/08/15 03:43:40;;;;;;;3.45;1.25;;;15.20;99.90;;;;;;5098266;28;20016;-78
2021/08/15 03:46:06;;;;;;;5.15;1.10;;;15.20;99.90;;;;;;5116294;28;20034;-78
2021/08/15 03:48:31;;;;;;;4.55;1.45;;;15.20;99.90;;;;;;5116305;28;20366;-78
2021/08/15 03:50:57;;;;;;;4.63;1.20;;;15.20;99.90;;;;;;5116176;28;20473;-77
2021/08/15 03:53:22;;;;;;;5.97;1.15;;;15.20;99.90;;;;;;5116187;28;20039;-75
2021/08/15 03:55:48;;;;;;;4.07;1.50;;;15.20;99.90;;;;;;5115850;28;20028;-75
2021/08/15 03:58:13;;;;;;;6.20;1.67;;;15.20;99.90;;;;;;5116171;28;20050;-78
2021/08/15 04:00:43;;;;;;;5.20;1.45;;;15.30;99.90;;;;;;5116378;28;20019;-78
2021/08/15 04:03:09;;;;;;;4.03;2.30;;;15.30;99.90;;;;;;5116072;28;20098;-78
2021/08/15 04:05:36;;;;;;;6.45;1.45;;;15.30;99.90;;;;;;5115991;28;20024;-76
2021/08/15 04:08:02;;;;;;;4.80;1.70;;;15.20;99.90;;;;;;5115688;28;20103;-76
2021/08/15 04:10:27;;;;;;;6.20;2.13;;;15.30;99.90;;;;;;5115669;28;20108;-76
2021/08/15 04:12:53;;;;;;;4.53;1.48;;;15.20;99.90;;;;;;5097221;28;20031;-76
2021/08/15 04:15:19;;;;;;;3.50;0.88;;;15.30;99.90;;;;;;5115593;28;20023;-76
2021/08/15 04:17:45;;;;;;;2.50;1.10;;;15.20;99.90;;;;;;5097218;28;20481;-76
2021/08/15 04:20:11;;;;;;;7.13;1.50;;;15.20;99.90;;;;;;5115462;28;20020;-76
2021/08/15 04:22:36;;;;;;;3.00;0.80;;;15.20;99.90;;;;;;5097088;28;20122;-76
2021/08/15 04:25:02;;;;;;;5.85;1.40;;;15.30;99.90;;;;;;5097187;28;20062;-76
2021/08/15 04:27:28;;;;;;;4.97;1.13;;;15.30;99.90;;;;;;5107281;22;20036;-80
2021/08/15 04:29:53;;;;;;;5.30;2.10;;;15.30;99.90;;;;;;5096365;28;20020;-80
2021/08/15 04:32:19;;;;;;;6.63;1.50;;;15.30;99.90;;;;;;5093561;28;20020;-77
2021/08/15 04:34:44;;;;;;;7.10;1.67;;;15.30;99.90;;;;;;5095806;28;20012;-78
2021/08/15 04:37:10;;;;;;;3.72;1.63;;;15.40;99.90;;;;;;5095144;28;20023;-76
2021/08/15 04:39:36;;;;;;;5.78;1.98;;;15.40;99.90;;;;;;5094427;28;20035;-76
2021/08/15 04:42:02;;;;;;;5.70;1.20;;;15.50;99.90;;;;;;5094556;28;20024;-76
2021/08/15 04:44:28;;;;;;;5.43;1.77;;;15.40;99.90;;;;;;5093354;28;20027;-76
2021/08/15 04:46:53;;;;;;;4.18;1.30;;;15.40;99.90;;;;;;5094643;28;20027;-76
2021/08/15 04:49:19;;;;;;;3.83;1.33;;;15.50;99.90;;;;;;5093312;28;20013;-76
2021/08/15 04:51:44;;;;;;;5.93;1.67;;;15.50;99.90;;;;;;5093365;28;20074;-78
2021/08/15 04:54:10;;;;;;;6.50;2.17;;;15.50;99.90;;;;;;5095305;28;20047;-78
2021/08/15 04:56:35;;;;;;;5.40;1.52;;;15.60;99.90;;;;;;5095168;28;20016;-78
2021/08/15 04:59:01;;;;;;;7.85;1.90;;;15.60;99.90;;;;;;5095385;28;20024;-78
2021/08/15 05:01:26;;;;;;;7.80;1.60;;;15.60;99.90;;;;;;5093330;28;20485;-76
2021/08/15 05:03:52;;;;;;;8.50;2.00;;;15.70;99.90;;;;;;5094068;28;20024;-76
2021/08/15 05:06:18;;;;;;;6.40;2.10;;;15.60;99.90;;;;;;5094292;28;20389;-77
2021/08/15 05:08:44;;;;;;;5.75;1.60;;;15.60;99.90;;;;;;5094214;28;20024;-76
2021/08/15 05:11:10;;;;;;;6.57;2.20;;;15.70;99.90;;;;;;5094117;28;20028;-76
2021/08/15 05:13:37;;;;;;;6.93;1.95;;;15.70;99.90;;;;;;5093036;28;20028;-77
2021/08/15 05:16:03;;;;;;;6.03;1.63;;;15.70;99.90;;;;;;5095037;28;20024;-79
2021/08/15 05:18:28;;;;;;;7.22;2.17;;;15.80;99.90;;;;;;5093202;28;20530;-78
2021/08/15 05:20:54;;;;;;;7.60;1.63;;;15.80;99.90;;;;;;5093141;28;20393;-76
2021/08/15 05:23:20;;;;;;;7.03;2.47;;;15.80;99.90;;;;;;5093833;28;20091;-76
2021/08/15 05:25:46;;;;;;;5.68;1.65;;;15.90;99.90;;;;;;5094113;28;20402;-78
2021/08/15 05:28:12;;;;;;;7.28;2.00;;;15.90;99.90;;;;;;5092913;28;20024;-77
2021/08/15 05:30:38;;;;;;;8.38;1.55;;;16.00;99.90;;;;;;5094372;28;20020;-77
2021/08/15 05:33:03;;;;;;;8.65;1.83;;;16.00;99.90;;;;;;5093788;28;20031;-77
2021/08/15 05:35:29;;;;;;;5.82;1.90;;;16.00;99.90;;;;;;5094189;28;20064;-78
2021/08/15 05:37:54;;;;;;;5.85;1.92;;;16.10;99.90;;;;;;5092486;28;20024;-78
2021/08/15 05:40:20;;;;;;;7.38;2.25;;;16.20;99.90;;;;;;5092820;28;20039;-78
2021/08/15 05:42:46;;;;;;;5.50;2.00;;;16.20;99.90;;;;;;5092592;28;20107;-77
2021/08/15 05:45:12;;;;;;;7.40;1.85;;;16.30;99.90;;;;;;5092675;28;20105;-77
2021/08/15 05:47:38;;;;;;;5.80;1.85;;;16.30;99.90;;;;;;5094361;28;20016;-77
2021/08/15 05:50:05;;;;;;;6.57;2.15;;;16.40;99.90;;;;;;5092570;28;20115;-77
2021/08/15 05:52:30;;;;;;;9.77;2.28;;;16.50;99.90;;;;;;5093750;28;20140;-77
2021/08/15 05:54:56;;;;;;;5.70;1.55;;;16.50;99.90;;;;;;5092415;28;20499;-77
2021/08/15 05:57:22;;;;;;;5.65;2.17;;;16.60;99.90;;;;;;5092392;28;20016;-77
2021/08/15 05:59:48;;;;;;;5.65;1.70;;;16.60;99.90;;;;;;5092571;28;20097;-78
2021/08/15 06:02:13;;;;;;;6.90;1.88;;;16.70;99.90;;;;;;5094439;28;20080;-80
2021/08/15 06:04:39;;;;;;;4.65;1.55;;;16.80;99.90;;;;;;5092269;28;20020;-77
2021/08/15 06:07:04;;;;;;;8.18;2.00;;;16.80;99.90;;;;;;5094533;28;20017;-78
2021/08/15 06:09:30;;;;;;;6.07;2.03;;;16.90;99.90;;;;;;5093962;28;20377;-77
2021/08/15 06:11:56;;;;;;;7.35;2.05;;;17.00;99.90;;;;;;5093459;28;20016;-78
2021/08/15 06:14:22;;;;;;;6.78;2.00;;;17.00;99.90;;;;;;5093794;28;20035;-77
2021/08/15 06:16:47;;;;;;;4.32;1.50;;;17.10;99.90;;;;;;5096449;28;20032;-77
2021/08/15 06:19:13;;;;;;;6.50;2.65;;;17.10;99.90;;;;;;5096264;28;20027;-75
2021/08/15 06:21:39;;;;;;;7.35;1.38;;;17.20;99.90;;;;;;5096154;28;20499;-80
2021/08/15 06:24:05;;;;;;;7.55;1.70;;;17.30;99.90;;;;;;5096594;28;20020;-80
2021/08/15 06:26:32;;;;;;;6.88;1.65;;;17.40;99.90;;;;;;5097569;28;20443;-80
2021/08/15 06:28:58;;;;;;;7.68;2.03;;;17.50;99.90;;;;;;5097441;28;20028;-76
2021/08/15 06:31:24;;;;;;;7.82;1.52;;;17.60;99.90;;;;;;5097167;28;20020;-76
2021/08/15 06:33:51;;;;;;;5.22;1.65;;;17.70;99.90;;;;;;5095832;28;20530;-76
2021/08/15 06:36:17;;;;;;;5.68;1.25;;;17.80;99.90;;;;;;5097131;28;20081;-76
2021/08/15 06:38:43;;;;;;;3.33;1.17;;;17.90;99.90;;;;;;5097044;28;20073;-76
2021/08/15 06:41:09;;;;;;;6.82;1.23;;;18.00;99.90;;;;;;5096996;28;20020;-76
2021/08/15 06:43:35;;;;;;;5.28;1.63;;;18.20;99.90;;;;;;5097002;28;20054;-77
2021/08/15 06:46:00;;;;;;;4.13;1.10;;;18.30;99.90;;;;;;5097581;28;20055;-77
2021/08/15 06:48:26;;;;;;;6.68;2.17;;;18.50;99.90;;;;;;5097350;28;20031;-77
2021/08/15 06:50:54;;;;;;;5.53;1.00;;;18.60;99.90;;;;;;5095663;28;20107;-77
2021/08/15 06:53:23;;;;;;;5.55;1.63;;;18.80;99.90;;;;;;5096943;28;20025;-77
2021/08/15 06:55:50;;;;;;;4.72;1.30;;;18.80;99.90;;;;;;5096835;28;20485;-77
2021/08/15 06:58:16;;;;;;;7.07;1.48;;;18.80;99.90;;;;;;5097089;28;20024;-77
2021/08/15 07:00:42;;;;;;;8.05;1.35;;;18.80;99.90;;;;;;5096781;28;20028;-77
2021/08/15 07:03:08;;;;;;;3.40;1.08;;;18.80;99.90;;;;;;5096602;28;20020;-76
2021/08/15 07:05:33;;;;;;;8.68;1.48;;;18.80;99.90;;;;;;5095267;28;20107;-76
2021/08/15 07:07:59;;;;;;;4.07;1.20;;;18.80;99.90;;;;;;5096491;28;20389;-76
2021/08/15 07:10:27;;;;;;;9.82;1.33;;;19.00;99.90;;;;;;5095040;28;20089;-76
2021/08/15 07:12:55;;;;;;;6.88;1.35;;;19.20;99.90;;;;;;5095144;28;20048;-75
2021/08/15 07:15:21;;;;;;;;;;;19.20;99.90;;;;;;5095658;28;20508;-76
2021/08/15 07:17:47;;;;;;;7.25;1.23;;;19.20;99.90;;;;;;5095137;28;19908;-77
2021/08/15 07:20:14;;;;;;;5.47;1.08;;;19.20;99.90;;;;;;5096269;28;20016;-77
2021/08/15 07:22:39;;;;;;;5.68;0.90;;;19.30;99.90;;;;;;5096391;28;20024;-77
2021/08/15 07:25:06;;;;;;;6.60;1.58;;;19.40;99.90;;;;;;5096127;28;20020;-77
2021/08/15 07:27:34;;;;;;;9.82;1.45;;;19.50;99.90;;;;;;5095745;28;20028;-77
2021/08/15 07:30:00;;;;;;;7.35;1.88;;;19.60;99.90;;;;;;5096259;28;20064;-77
2021/08/15 07:32:25;;;;;;;3.20;1.00;;;19.70;99.90;;;;;;5096085;28;20031;-78
2021/08/15 07:34:51;;;;;;;7.93;1.05;;;19.90;99.90;;;;;;5095104;28;20028;-79
2021/08/15 07:37:16;;;;;;;6.47;1.02;;;20.10;99.90;;;;;;5094921;28;20373;-80
2021/08/15 07:39:43;;;;;;;5.72;1.00;;;20.30;99.90;;;;;;5096237;28;20493;-76
2021/08/15 07:42:08;;;;;;;6.95;0.80;;;20.40;99.90;;;;;;5094570;28;20012;-76
2021/08/15 07:44:34;;;;;;;7.07;1.02;;;20.70;99.90;;;;;;5094847;28;20427;-76
2021/08/15 07:47:00;;;;;;;7.78;1.60;;;20.80;99.90;;;;;;5096023;28;20095;-80
2021/08/15 07:49:25;;;;;;;2.90;0.95;;;20.80;99.90;;;;;;5094559;28;20028;-76
2021/08/15 07:51:51;;;;;;;4.38;0.95;;;21.00;99.90;;;;;;5095732;28;20057;-78
2021/08/15 07:54:17;;;;;;;5.93;1.38;;;20.80;99.90;;;;;;5096329;28;20059;-80
2021/08/15 07:56:44;;;;;;;6.32;1.23;;;21.00;99.90;;;;;;5094620;28;20048;-77
2021/08/15 07:59:10;;;;;;;3.28;0.88;;;21.20;99.90;;;;;;5095103;28;20381;-78
2021/08/15 08:01:36;;;;;;;5.13;0.50;;;21.30;99.90;;;;;;5096515;28;20385;-80
2021/08/15 08:04:02;;;;;;;7.07;1.75;;;21.40;99.90;;;;;;5094597;28;20385;-80
2021/08/15 08:06:28;;;;;;;7.00;1.15;;;21.20;99.90;;;;;;5096784;28;20017;-79
2021/08/15 08:08:53;;;;;;;6.57;1.00;;;21.00;99.90;;;;;;5094721;28;20484;-79
2021/08/15 08:11:19;;;;;;;7.03;0.93;;;20.90;99.90;;;;;;5095266;28;20101;-77
2021/08/15 08:13:47;;;;;;;2.95;0.90;;;21.00;99.90;;;;;;5095437;28;20095;-77
2021/08/15 08:16:14;;;;;;;8.90;1.48;;;21.10;99.90;;;;;;5095414;28;20024;-77
2021/08/15 08:18:40;;;;;;;6.07;1.70;;;21.20;99.90;;;;;;5095327;28;20032;-77
2021/08/15 08:21:07;;;;;;;6.00;1.17;;;21.10;99.90;;;;;;5095095;28;20028;-77
2021/08/15 08:23:34;;;;;;;6.18;1.33;;;21.10;99.90;;;;;;5093719;28;20405;-77
2021/08/15 08:26:00;;;;;;;3.22;0.93;;;21.30;99.90;;;;;;5095185;28;20024;-77
2021/08/15 08:28:26;;;;;;;3.90;0.60;;;21.40;99.90;;;;;;5095392;28;20089;-79
2021/08/15 08:30:52;;;;;;;6.65;0.85;;;21.60;99.90;;;;;;5095440;28;20020;-80
2021/08/15 08:33:18;;;;;;;6.65;1.60;;;21.70;99.90;;;;;;5093921;28;20026;-79
2021/08/15 08:35:43;;;;;;;3.22;0.45;;;21.90;99.90;;;;;;5094009;28;20016;-78
2021/08/15 08:38:09;;;;;;;3.80;0.80;;;21.90;99.90;;;;;;5092975;28;20028;-78
2021/08/15 08:40:34;;;;;;;8.43;0.98;;;22.20;99.90;;;;;;5095300;28;20473;-78
2021/08/15 08:43:00;;;;;;;7.43;1.27;;;22.10;99.90;;;;;;5095023;28;20020;-76
2021/08/15 08:45:27;;;;;;;4.22;0.70;;;22.20;99.90;;;;;;5094896;28;20039;-78
2021/08/15 08:47:54;;;;;;;3.85;1.05;;;22.20;99.90;;;;;;5095210;28;20024;-78
2021/08/15 08:50:21;;;;;;;5.38;0.98;;;22.40;99.90;;;;;;5094821;28;20024;-75
2021/08/15 08:52:47;;;;;;;7.47;0.60;;;23.90;99.90;;;;;;5094398;28;20482;-75
2021/08/15 08:55:15;;;;;;;8.68;0.82;;;22.50;99.90;;;;;;5119085;22;20050;-78
2021/08/15 08:57:41;;;;;;;5.20;0.50;;;22.50;99.90;;;;;;5097021;28;20495;-78
2021/08/15 09:00:07;;;;;;;6.72;1.13;;;22.50;99.90;;;;;;5115257;28;20016;-75
2021/08/15 09:02:37;;;;;;;4.15;0.65;;;22.60;99.90;;;;;;5114550;28;20024;-77
2021/08/15 09:05:06;;;;;;;4.75;0.73;;;22.60;99.90;;;;;;5114814;28;20486;-77
2021/08/15 09:07:34;;;;;;;4.32;0.52;;;22.70;99.90;;;;;;5096686;28;20448;-77
2021/08/15 09:10:03;;;;;;;9.27;1.08;;;22.70;99.90;;;;;;5114731;28;20019;-77
2021/08/15 09:12:44;;;;;;;3.97;1.00;;;22.80;99.90;;;;;;5114431;28;20019;-77
2021/08/15 09:15:21;;;;;;;4.70;0.70;;;22.90;99.90;;;;;;5096768;28;20073;-77
2021/08/15 09:17:48;;;;;;;4.72;0.63;;;23.00;99.90;;;;;;5114346;28;20034;-77
2021/08/15 09:20:42;;;;;;;5.18;0.70;;;23.00;99.90;;;;;;5114579;28;20069;-77
2021/08/15 09:23:25;;;;;;;9.90;0.73;;;23.00;99.90;;;;;;5096049;28;20033;-77
2021/08/15 09:26:19;;;;;;;6.00;0.30;;;23.20;99.90;;;;;;5114384;28;20431;-77
2021/08/15 09:28:50;;;;;;;4.63;1.23;;;23.20;99.90;;;;;;5114515;28;20015;-77
2021/08/15 09:31:32;;;;;;;2.60;0.60;;;23.30;99.90;;;;;;5114239;28;20034;-77
2021/08/15 09:34:00;;;;;;;4.53;0.77;;;23.40;99.90;;;;;;5114446;28;20031;-76
2021/08/15 09:36:40;;;;;;;6.88;0.80;;;23.50;99.90;;;;;;5114378;28;20469;-76
2021/08/15 09:39:08;;;;;;;4.28;0.50;;;23.60;99.90;;;;;;5114156;28;20027;-78
2021/08/15 09:41:36;;;;;;;4.22;1.10;;;23.60;99.90;;;;;;5114270;28;20022;-78
2021/08/15 09:44:25;;;;;;;5.82;1.67;;;23.60;99.90;;;;;;5114723;28;20480;-78
2021/08/15 09:46:55;;;;;;;3.85;0.47;;;23.50;99.90;;;;;;5095787;28;20019;-77
2021/08/15 09:49:20;;;;;;;6.82;0.93;;;23.60;99.90;;;;;;5114014;28;20159;-77
2021/08/15 09:51:46;;;;;;;3.10;0.80;;;23.80;99.90;;;;;;5114560;28;20125;-79
2021/08/15 09:54:17;;;;;;;5.57;0.82;;;23.70;99.90;;;;;;5113781;28;20032;-76
2021/08/15 09:56:43;;;;;;;4.05;0.80;;;23.80;99.90;;;;;;5114427;28;20098;-77
2021/08/15 09:59:13;;;;;;;4.68;0.90;;;23.90;99.90;;;;;;5114139;28;20047;-77
2021/08/15 10:01:44;;;;;;;2.85;0.80;;;24.00;99.90;;;;;;5114316;28;20019;-78
2021/08/15 10:04:10;;;;;;;3.40;0.80;;;23.90;99.90;;;;;;5096045;28;20015;-78
2021/08/15 10:06:38;;;;;;;4.70;0.70;;;23.80;99.90;;;;;;5114166;28;20019;-76
2021/08/15 10:09:04;;;;;;;6.13;0.90;;;23.70;99.90;;;;;;5112800;28;20020;-76
2021/08/15 10:11:31;;;;;;;4.95;0.77;;;23.60;99.80;;;;;;5113814;28;20020;-77
2021/08/15 10:13:59;;;;;;;5.03;1.00;;;23.70;99.30;;;;;;5114024;28;20080;-77
2021/08/15 10:16:34;;;;;;;2.58;0.85;;;23.80;99.40;;;;;;5114016;28;20023;-77
2021/08/15 10:19:02;;;;;;;5.97;0.52;;;23.80;99.90;;;;;;5095302;28;20055;-77
2021/08/15 10:21:28;;;;;;;;;;;24.00;99.90;;;;;;5113981;28;20027;-77
2021/08/15 10:24:06;;;;;;;2.92;0.50;;;24.00;99.00;;;;;;5113655;28;19904;-77
2021/08/15 10:26:46;;;;;;;2.03;0.65;;;24.20;99.90;;;;;;5114213;28;20107;-77
2021/08/15 10:29:31;;;;;;;4.45;0.38;;;24.20;97.70;;;;;;5113978;28;20181;-76
2021/08/15 10:32:07;;;;;;;5.45;0.57;;;24.20;98.90;;;;;;5095206;28;20127;-76
2021/08/15 10:34:50;;;;;;;4.57;0.88;;;24.30;97.70;;;;;;5113460;28;20038;-76
2021/08/15 10:37:25;;;;;;;1.45;0.30;;;24.30;95.80;;;;;;5113417;28;20023;-76
2021/08/15 10:39:53;;;;;;;4.65;0.15;;;24.40;98.80;;;;;;5095118;28;20034;-76
2021/08/15 10:42:37;;;;;;;5.43;0.30;;;24.50;93.70;;;;;;5113474;28;20477;-79
2021/08/15 10:45:08;;;;;;;6.00;0.40;;;24.60;97.10;;;;;;5095637;28;20027;-80
2021/08/15 10:47:35;;;;;;;3.65;0.40;;;24.90;97.50;;;;;;5114148;28;20514;-77
2021/08/15 10:50:03;;;;;;;4.88;0.60;;;24.80;93.20;;;;;;5095458;28;20030;-77
2021/08/15 10:52:35;;;;;;;2.90;0.40;;;24.90;94.20;;;;;;5095399;28;20035;-77
2021/08/15 10:55:04;;;;;;;4.25;0.73;;;24.80;93.10;;;;;;5113571;28;20020;-77
2021/08/15 10:57:59;;;;;;;2.47;0.40;;;24.60;95.50;;;;;;5113235;28;20023;-77
2021/08/15 11:00:38;;;;;;;2.72;0.52;;;24.50;95.30;;;;;;5104015;28;20141;-77
2021/08/15 11:03:12;;;;;;;1.83;0.17;;;24.30;93.70;;;;;;5098851;28;20491;-77
2021/08/15 11:05:39;;;;;;;2.38;0.35;;;24.20;94.80;;;;;;5117158;28;20020;-77
2021/08/15 11:08:34;;;;;;;3.78;0.40;;;24.40;95.20;;;;;;5117008;28;20157;-77
2021/08/15 11:11:06;;;;;;;1.30;0.08;;;24.60;97.00;;;;;;5116931;28;20446;-77
2021/08/15 11:13:34;;;;;;;4.35;0.45;;;24.60;94.60;;;;;;5116796;28;20031;-75
2021/08/15 11:16:25;;;;;;;2.72;0.10;;;24.50;95.70;;;;;;5116880;28;20028;-77
2021/08/15 11:19:08;;;;;;;2.83;0.28;;;24.20;98.70;;;;;;5098644;28;20036;-77
2021/08/15 11:22:10;;;;;;;3.78;0.00;;;24.20;97.80;;;;;;5116871;28;20485;-77
2021/08/15 11:24:42;;;;;;;3.10;0.10;;;24.50;99.40;;;;;;5115418;28;20102;-75
2021/08/15 11:27:09;;;;;;;0.65;0.10;;;24.60;98.20;;;;;;5117147;28;20024;-76
2021/08/15 11:29:37;;;;;;;2.70;0.10;;;25.00;97.60;;;;;;5098197;28;20023;-76
2021/08/15 11:32:04;;;;;;;2.45;0.20;;;25.20;96.50;;;;;;5116928;28;20032;-77
2021/08/15 11:34:29;;;;;;;1.67;0.32;;;25.30;98.00;;;;;;5117323;28;20047;-78
2021/08/15 11:36:55;;;;;;;1.42;0.20;;;25.50;97.20;;;;;;5098472;28;20501;-78
2021/08/15 11:39:30;;;;;;;0.80;0.20;;;25.60;96.60;;;;;;5116581;28;20031;-78
2021/08/15 11:41:56;;;;;;;1.00;0.00;;;25.80;99.50;;;;;;5116930;28;20016;-77
2021/08/15 11:44:21;;;;;;;0.40;0.00;;;26.10;97.90;;;;;;5116353;28;20080;-77
2021/08/15 11:46:47;;;;;;;1.17;0.20;;;26.10;98.00;;;;;;5116957;28;20035;-78
2021/08/15 11:49:33;;;;;;;2.67;0.10;;;25.90;95.60;;;;;;5098010;28;20076;-78
2021/08/15 11:52:13;;;;;;;0.47;0.00;;;25.60;96.50;;;;;;5098010;28;20031;-78
2021/08/15 11:54:40;;;;;;;2.17;0.20;;;25.40;97.40;;;;;;5097755;28;20031;-78
2021/08/15 11:57:10;;;;;;;0.93;0.00;;;25.50;97.10;;;;;;5116495;28;20477;-78
2021/08/15 11:59:37;;;;;;;2.78;0.08;;;25.90;96.40;;;;;;5097841;28;20030;-78
2021/08/15 12:02:03;;;;;;;1.88;0.20;;;26.10;95.90;;;;;;5116003;28;20047;-78
2021/08/15 12:04:29;;;;;;;1.17;0.17;;;26.20;96.10;;;;;;5115982;28;20435;-78
2021/08/15 12:06:55;;;;;;;2.40;0.20;;;26.20;96.10;;;;;;5097861;28;20358;-78
2021/08/15 12:09:28;;;;;;;0.80;0.30;;;25.80;96.50;;;;;;5116085;28;20028;-78
2021/08/15 12:11:58;;;;;;;0.55;0.13;;;25.70;97.30;;;;;;5097439;28;20106;-78
2021/08/15 12:14:33;;;;;;;1.45;0.20;;;25.50;96.50;;;;;;5115718;28;20034;-77
2021/08/15 12:16:59;;;;;;;1.65;0.03;;;25.50;97.30;;;;;;5115935;28;20035;-77
2021/08/15 12:19:30;;;;;;;0.95;0.00;;;25.50;98.10;;;;;;5097421;28;20048;-78
2021/08/15 12:22:01;;;;;;;1.10;0.20;;;25.70;98.20;;;;;;5116373;28;20022;-78
2021/08/15 12:24:31;;;;;;;1.83;0.00;;;26.10;99.10;;;;;;5116561;28;20170;-78
2021/08/15 12:27:06;;;;;;;2.40;0.00;;;26.60;97.90;;;;;;5116178;28;20019;-78
2021/08/15 12:29:44;;;;;;;4.50;0.10;;;26.90;96.60;;;;;;5116132;28;20055;-78
2021/08/15 12:32:09;;;;;;;2.55;0.40;;;27.10;93.00;;;;;;5116773;28;20019;-78
2021/08/15 12:34:41;;;;;;;0.45;0.00;;;27.00;93.80;;;;;;5097395;28;20438;-77
2021/08/15 12:37:15;;;;;;;1.75;0.00;;;26.80;94.10;;;;;;5115763;28;20020;-78
2021/08/15 12:39:43;;;;;;;0.75;0.20;;;26.70;93.40;;;;;;5115714;28;20504;-78
2021/08/15 12:42:13;;;;;;;2.27;0.00;;;26.60;92.40;;;;;;5097196;28;20015;-78
2021/08/15 12:44:54;;;;;;;0.32;0.00;;;26.70;93.40;;;;;;5097127;28;20016;-78
2021/08/15 12:47:36;;;;;;;0.80;0.30;;;26.70;91.00;;;;;;5115774;28;20024;-78
2021/08/15 12:50:15;;;;;;;2.83;0.10;;;26.90;93.40;;;;;;5097168;28;20019;-78
2021/08/15 12:52:57;;;;;;;2.53;0.10;;;27.00;91.90;;;;;;5115324;28;20027;-78